Pilot No. 4 — WDA5463 — position and weather

sailwx.info

Track history (hours):
 
Tides and Currents Weather Stations Pressure Air Temp Water Temp Dewpoint Dewpoint Depression Visibility Wind Speed Wind Dir Waves Ship Positions

Pilot No. 4

Owner: P E P Inc, FORT LAUDERDALE, FL. More information available from US FCC via Universal Licensing System and Coast Guard Vessel Documentation Center.

Last reported at 2015-Feb-28 11:24 UTC. Time now 2015-Feb-28 12:35 UTC.
Position N 26°06' W 080°07'.

MMSI: 495270931.

Date/timePositionNaut miles runAvg speedWind from/ knotsBaromVisibWave heightAir tempDewpointWater temp
2015-Feb-28 11:24N 26°06' W 080°07'1 1.2
2015-Feb-28 10:33N 26°05' W 080°07'5 4.8
2015-Feb-28 09:33N 26°06' W 080°02'3 1.1
2015-Feb-28 06:33N 26°05' W 080°05'1 1.2
2015-Feb-28 05:34N 26°06' W 080°04'2 1.6
2015-Feb-28 04:33N 26°06' W 080°06'1 0.2
2015-Feb-27 22:33N 26°06' W 080°05'2 2.3
2015-Feb-27 21:33N 26°05' W 080°07'0 0.3
2015-Feb-27 20:33N 26°05' W 080°07'0 0.3
2015-Feb-27 19:33N 26°06' W 080°07'0 0.4
2015-Feb-27 18:33N 26°05' W 080°07'0 0.4
2015-Feb-27 17:33N 26°05' W 080°07'0 0.3
2015-Feb-27 16:33N 26°05' W 080°07'0 0.2
2015-Feb-27 15:33N 26°05' W 080°07'1 1.0
2015-Feb-27 14:33N 26°06' W 080°06'1 1.0
2015-Feb-27 13:33N 26°06' W 080°07'0 0.2
2015-Feb-27 12:33N 26°05' W 080°07'0 0.4
2015-Feb-27 11:33N 26°05' W 080°07'1 1.2
2015-Feb-27 10:33N 26°06' W 080°06'1 1.2
2015-Feb-27 09:33N 26°06' W 080°07'3 3.4
2015-Feb-27 08:33N 26°06' W 080°03'4 1.9
2015-Feb-27 06:33N 26°06' W 080°07'1 0.8
2015-Feb-27 05:34N 26°05' W 080°07'1 0.1
2015-Feb-26 23:21N 26°06' W 080°07'0 0.0
2015-Feb-26 20:33N 26°06' W 080°07'1 1.2
2015-Feb-26 19:33N 26°05' W 080°07'0 0.1
2015-Feb-26 18:33N 26°05' W 080°07'1 1.1
2015-Feb-26 17:33N 26°06' W 080°07'2 2.1
2015-Feb-26 16:33N 26°06' W 080°05'2 1.7
2015-Feb-26 15:33N 26°06' W 080°07'1 0.2
2015-Feb-26 11:27N 26°06' W 080°07'2 2.5
2015-Feb-26 10:33N 26°06' W 080°05'2 2.5
2015-Feb-26 09:33N 26°06' W 080°02'4 4.5
2015-Feb-26 08:33N 26°06' W 080°07'0 0.3
2015-Feb-26 07:34N 26°05' W 080°07'4 3.9
2015-Feb-26 06:33N 26°06' W 080°03'4 3.4
2015-Feb-26 05:22N 26°06' W 080°07'0 0.6
2015-Feb-26 04:33N 26°06' W 080°07'  
Track history (hours):
 
Tides and Currents Weather Stations Pressure Air Temp Water Temp Dewpoint Dewpoint Depression Visibility Wind Speed Wind Dir Waves Ship Positions

Pilot No. 4

Owner: P E P Inc, FORT LAUDERDALE, FL. More information available from US FCC via Universal Licensing System and Coast Guard Vessel Documentation Center.

Last reported at 2015-Feb-28 11:24 UTC. Time now 2015-Feb-28 12:35 UTC.
Position N 26°06' W 080°07'.

MMSI: 495270931.

Date/timePositionNaut miles runAvg speedWind from/ knotsBaromVisibWave heightAir tempDewpointWater temp
2015-Feb-28 11:24N 26°06' W 080°07'1 1.2
2015-Feb-28 10:33N 26°05' W 080°07'5 4.8
2015-Feb-28 09:33N 26°06' W 080°02'3 1.1
2015-Feb-28 06:33N 26°05' W 080°05'1 1.2
2015-Feb-28 05:34N 26°06' W 080°04'2 1.6
2015-Feb-28 04:33N 26°06' W 080°06'1 0.2
2015-Feb-27 22:33N 26°06' W 080°05'2 2.3
2015-Feb-27 21:33N 26°05' W 080°07'0 0.3
2015-Feb-27 20:33N 26°05' W 080°07'0 0.3
2015-Feb-27 19:33N 26°06' W 080°07'0 0.4
2015-Feb-27 18:33N 26°05' W 080°07'0 0.4
2015-Feb-27 17:33N 26°05' W 080°07'0 0.3
2015-Feb-27 16:33N 26°05' W 080°07'0 0.2
2015-Feb-27 15:33N 26°05' W 080°07'1 1.0
2015-Feb-27 14:33N 26°06' W 080°06'1 1.0
2015-Feb-27 13:33N 26°06' W 080°07'0 0.2
2015-Feb-27 12:33N 26°05' W 080°07'0 0.4
2015-Feb-27 11:33N 26°05' W 080°07'1 1.2
2015-Feb-27 10:33N 26°06' W 080°06'1 1.2
2015-Feb-27 09:33N 26°06' W 080°07'3 3.4
2015-Feb-27 08:33N 26°06' W 080°03'4 1.9
2015-Feb-27 06:33N 26°06' W 080°07'1 0.8
2015-Feb-27 05:34N 26°05' W 080°07'1 0.1
2015-Feb-26 23:21N 26°06' W 080°07'0 0.0
2015-Feb-26 20:33N 26°06' W 080°07'1 1.2
2015-Feb-26 19:33N 26°05' W 080°07'0 0.1
2015-Feb-26 18:33N 26°05' W 080°07'1 1.1
2015-Feb-26 17:33N 26°06' W 080°07'2 2.1
2015-Feb-26 16:33N 26°06' W 080°05'2 1.7
2015-Feb-26 15:33N 26°06' W 080°07'1 0.2
2015-Feb-26 11:27N 26°06' W 080°07'2 2.5
2015-Feb-26 10:33N 26°06' W 080°05'2 2.5
2015-Feb-26 09:33N 26°06' W 080°02'4 4.5
2015-Feb-26 08:33N 26°06' W 080°07'0 0.3
2015-Feb-26 07:34N 26°05' W 080°07'4 3.9
2015-Feb-26 06:33N 26°06' W 080°03'4 3.4
2015-Feb-26 05:22N 26°06' W 080°07'0 0.6
2015-Feb-26 04:33N 26°06' W 080°07'  

Dump ship's entire track history